Time;durP1;ratioP1;P1;durP2;ratioP2;P2;SDS_P1;SDS_P2;PMS_P1;PMS_P2;Temp;Humidity;BMP_temperature;BMP_pressure;BME280_temperature;BME280_humidity;BME280_pressure;Samples;Min_cycle;Max_cycle;Signal;HPM_P1;HPM_P2
2023/01/05 00:00:49;;;;;;;10.30;1.83;;;;;;;9.87;100.00;100711.13;6271601;28;20056;-76
2023/01/05 00:03:51;;;;;;;7.22;1.30;;;;;;;9.91;100.00;100707.41;6271592;28;20049;-76
2023/01/05 00:06:52;;;;;;;9.00;1.55;;;;;;;9.85;100.00;100721.69;6271681;28;20059;-76
2023/01/05 00:09:53;;;;;;;11.82;1.60;;;;;;;9.93;100.00;100717.84;6271146;28;20072;-76
2023/01/05 00:22:53;;;;;;;;;;;;;;;9.99;100.00;100726.25;6271843;28;20076;-76
2023/01/05 00:25:55;;;;;;;11.70;1.38;;;;;;;9.94;100.00;100735.28;6271014;28;20364;-76
2023/01/05 00:28:56;;;;;;;11.00;1.58;;;;;;;9.95;100.00;100724.72;6271498;28;20052;-76
2023/01/05 00:31:59;;;;;;;7.78;1.48;;;;;;;9.99;100.00;100747.25;6271196;28;20048;-75
2023/01/05 00:35:02;;;;;;;12.60;1.80;;;;;;;9.95;100.00;100727.34;6271239;28;20060;-76
2023/01/05 00:38:03;;;;;;;8.40;2.72;;;;;;;9.90;100.00;100745.06;6271106;28;20056;-76
2023/01/05 00:41:04;;;;;;;7.20;1.67;;;;;;;9.96;100.00;100744.78;6271300;28;20485;-76
2023/01/05 00:44:06;;;;;;;8.20;1.17;;;;;;;10.03;100.00;100729.56;6271026;28;20041;-76
2023/01/05 00:47:09;;;;;;;3.35;1.10;;;;;;;9.98;100.00;100721.91;6271026;28;20516;-76
2023/01/05 00:50:13;;;;;;;5.45;1.10;;;;;;;9.91;100.00;100752.03;6271021;28;20049;-76
2023/01/05 00:53:14;;;;;;;3.58;1.58;;;;;;;9.90;100.00;100740.69;6271023;28;20500;-76
2023/01/05 00:56:16;;;;;;;11.48;1.80;;;;;;;9.90;100.00;100734.56;6271095;28;20055;-76
2023/01/05 00:59:18;;;;;;;4.30;1.30;;;;;;;9.90;100.00;100740.69;6270873;28;20045;-76
2023/01/05 01:02:20;;;;;;;6.25;1.13;;;;;;;9.95;100.00;100734.34;6270956;28;20048;-76
2023/01/05 01:05:22;;;;;;;5.20;2.28;;;;;;;9.98;100.00;100745.53;6270932;28;20049;-76
2023/01/05 01:08:23;;;;;;;13.77;2.45;;;;;;;9.94;100.00;100753.66;6270759;28;20053;-76
2023/01/05 01:11:24;;;;;;;6.50;1.42;;;;;;;9.91;100.00;100736.28;6270775;28;20050;-75
2023/01/05 01:14:26;;;;;;;6.30;1.50;;;;;;;9.91;100.00;100760.75;6270609;28;20052;-76
2023/01/05 01:17:31;;;;;;;18.38;1.73;;;;;;;9.80;100.00;100746.47;6270686;28;20447;-76
2023/01/05 01:20:32;;;;;;;3.15;0.80;;;;;;;9.75;100.00;100754.56;6270494;28;20056;-76
2023/01/05 01:23:34;;;;;;;9.25;1.75;;;;;;;9.68;100.00;100758.44;6262170;28;20124;-76
2023/01/05 01:26:35;;;;;;;14.55;2.90;;;;;;;9.61;100.00;100765.75;6259755;28;20045;-76
2023/01/05 01:29:36;;;;;;;10.75;1.75;;;;;;;9.55;100.00;100773.94;6262361;28;20049;-76
2023/01/05 01:32:39;;;;;;;7.18;0.80;;;;;;;9.43;100.00;100789.41;6270526;28;20504;-76
2023/01/05 01:35:40;;;;;;;4.60;1.23;;;;;;;9.38;100.00;100779.97;6258372;28;20053;-76
2023/01/05 01:38:42;;;;;;;14.65;1.50;;;;;;;9.41;100.00;100768.50;6256444;28;20053;-76
2023/01/05 01:41:43;;;;;;;14.48;1.60;;;;;;;9.46;100.00;100781.41;6268735;28;20049;-76
2023/01/05 01:44:50;;;;;;;11.43;1.38;;;;;;;9.54;100.00;100798.47;6267278;28;20053;-76
2023/01/05 01:47:56;;;;;;;4.80;1.30;;;;;;;9.57;100.00;100779.09;6274866;28;20056;-76
2023/01/05 01:51:00;;;;;;;7.72;1.95;;;;;;;9.63;100.00;100782.28;6274668;28;20061;-76
2023/01/05 01:54:05;;;;;;;8.70;1.15;;;;;;;9.55;100.00;100807.19;6261469;28;20060;-76
2023/01/05 01:57:11;;;;;;;4.88;2.05;;;;;;;9.55;100.00;100794.06;6274465;28;20053;-76
2023/01/05 02:00:14;;;;;;;3.22;0.70;;;;;;;9.57;100.00;100797.47;6274443;28;20053;-76
2023/01/05 02:03:16;;;;;;;5.40;0.90;;;;;;;9.59;100.00;100791.22;6274809;28;20127;-76
2023/01/05 02:06:18;;;;;;;3.65;1.10;;;;;;;9.60;100.00;100808.66;6274743;28;20477;-75
2023/01/05 02:09:19;;;;;;;7.95;0.90;;;;;;;9.58;100.00;100793.91;6274198;28;20057;-76
2023/01/05 02:12:36;;;;;;;5.63;1.13;;;;;;;9.60;100.00;100799.94;6274248;28;20513;-76
2023/01/05 02:15:50;;;;;;;10.77;2.42;;;;;;;9.62;100.00;100803.31;6274529;28;20049;-76
2023/01/05 02:19:27;;;;;;;9.25;1.13;;;;;;;9.60;100.00;100789.44;6264590;28;20060;-76
2023/01/05 02:23:00;;;;;;;4.00;1.30;;;;;;;9.66;100.00;100816.22;6274023;28;20056;-76
2023/01/05 02:26:20;;;;;;;19.17;1.70;;;;;;;9.71;100.00;100800.25;6273893;28;20053;-76
2023/01/05 02:29:50;;;;;;;6.35;1.23;;;;;;;9.68;100.00;100802.19;6273985;28;20056;-76
2023/01/05 02:33:00;;;;;;;4.43;0.93;;;;;;;9.71;100.00;100791.53;6274065;28;20049;-76
2023/01/05 02:36:08;;;;;;;5.28;1.42;;;;;;;9.78;100.00;100798.19;6273607;28;20049;-76
2023/01/05 02:39:15;;;;;;;5.47;1.25;;;;;;;9.76;100.00;100814.00;6273702;28;20049;-76
2023/01/05 02:42:22;;;;;;;2.50;0.90;;;;;;;9.64;100.00;100802.34;6273335;28;20409;-76
2023/01/05 02:45:24;;;;;;;3.92;0.90;;;;;;;9.68;100.00;100803.06;6273638;28;20056;-76
2023/01/05 02:48:27;;;;;;;1.48;0.60;;;;;;;9.70;100.00;100800.34;6273152;28;20496;-75
2023/01/05 02:51:33;;;;;;;4.15;1.30;;;;;;;9.66;100.00;100803.09;6273450;28;20048;-76
2023/01/05 02:54:41;;;;;;;5.38;1.60;;;;;;;9.66;100.00;100860.00;6273070;28;20049;-77
2023/01/05 02:57:49;;;;;;;9.20;1.55;;;;;;;9.65;100.00;100808.44;6273396;28;20056;-76
2023/01/05 03:00:53;;;;;;;7.13;1.25;;;;;;;9.54;100.00;100814.22;6272799;28;20412;-76
2023/01/05 03:04:00;;;;;;;2.58;1.00;;;;;;;9.58;100.00;100813.16;6272669;28;20052;-76
2023/01/05 03:07:05;;;;;;;9.13;1.50;;;;;;;9.59;100.00;100835.81;6273566;28;20057;-76
2023/01/05 03:13:42;;;;;;;6.95;1.17;;;;;;;9.53;100.00;100820.34;6273092;28;20401;-76
2023/01/05 03:16:47;;;;;;;9.30;1.23;;;;;;;9.57;100.00;100819.28;6272953;28;20064;-76
2023/01/05 03:19:50;;;;;;;9.68;1.30;;;;;;;9.55;100.00;100836.03;6272311;28;20049;-76
2023/01/05 03:36:25;;;;;;;10.07;1.33;;;;;;;9.58;100.00;100828.88;6272702;28;20049;-75
2023/01/05 03:39:30;;;;;;;12.93;1.52;;;;;;;9.57;100.00;100840.28;6272175;28;20053;-77
2023/01/05 03:42:33;;;;;;;7.55;2.15;;;;;;;9.62;100.00;100829.56;6272454;28;20045;-76
2023/01/05 03:45:38;;;;;;;7.80;2.17;;;;;;;9.59;100.00;100827.97;6272141;28;20052;-75
2023/01/05 03:48:40;;;;;;;12.68;1.75;;;;;;;9.65;100.00;100832.91;6272077;28;20053;-76
2023/01/05 03:51:43;;;;;;;5.15;1.13;;;;;;;9.64;100.00;100844.31;6271719;28;20428;-76
2023/01/05 03:54:44;;;;;;;13.02;1.13;;;;;;;9.62;100.00;100840.91;6270729;28;20048;-76
2023/01/05 03:57:46;;;;;;;10.05;1.25;;;;;;;9.66;100.00;100847.72;6271958;28;20485;-77
2023/01/05 04:00:47;;;;;;;6.25;2.50;;;;;;;9.67;100.00;100861.69;6271743;28;20044;-76
2023/01/05 04:03:48;;;;;;;6.88;1.52;;;;;;;9.68;100.00;100852.06;6271436;28;20488;-76
2023/01/05 04:06:51;;;;;;;4.70;1.23;;;;;;;9.67;100.00;100856.44;6271860;28;20056;-76
2023/01/05 04:09:52;;;;;;;5.70;1.13;;;;;;;9.64;100.00;100859.22;6271381;28;20056;-76
2023/01/05 04:12:54;;;;;;;8.25;1.70;;;;;;;9.66;100.00;100857.38;6271571;28;20412;-76
2023/01/05 04:15:55;;;;;;;6.22;1.42;;;;;;;9.61;100.00;100865.44;6271614;28;20049;-76
2023/01/05 04:18:56;;;;;;;4.38;1.20;;;;;;;9.58;100.00;100877.84;6271568;28;20056;-76
2023/01/05 04:21:59;;;;;;;8.23;1.20;;;;;;;9.63;100.00;100884.63;6271215;28;20056;-77
2023/01/05 04:25:00;;;;;;;2.38;0.80;;;;;;;9.57;100.00;100884.03;6271326;28;20049;-76
2023/01/05 04:28:01;;;;;;;4.38;1.23;;;;;;;9.60;100.00;100883.91;6271336;28;20048;-76
2023/01/05 04:31:03;;;;;;;10.55;1.35;;;;;;;9.58;100.00;100890.97;6271472;28;20053;-76
2023/01/05 04:34:04;;;;;;;10.18;1.17;;;;;;;9.65;100.00;100889.78;6271177;28;20061;-76
2023/01/05 04:37:07;;;;;;;12.65;1.80;;;;;;;9.65;100.00;100888.00;6271239;28;20053;-76
2023/01/05 04:40:09;;;;;;;5.13;1.90;;;;;;;9.64;100.00;100899.44;6270866;28;20052;-76
2023/01/05 04:43:10;;;;;;;9.80;1.60;;;;;;;9.59;100.00;100893.56;6270995;28;20045;-76
2023/01/05 04:46:11;;;;;;;5.78;1.88;;;;;;;9.46;100.00;100907.31;6271135;28;20045;-76
2023/01/05 04:49:13;;;;;;;12.30;1.77;;;;;;;9.42;100.00;100911.00;6271007;28;20053;-76
2023/01/05 04:52:15;;;;;;;11.55;2.35;;;;;;;9.39;100.00;100904.94;6271184;28;20112;-76
2023/01/05 04:55:17;;;;;;;8.73;1.25;;;;;;;9.37;100.00;100908.56;6270905;28;20041;-76
2023/01/05 04:58:18;;;;;;;10.48;1.35;;;;;;;9.29;100.00;100908.06;6270932;28;20418;-76
2023/01/05 05:01:20;;;;;;;6.35;2.58;;;;;;;9.29;100.00;100911.53;6270830;28;20052;-76
2023/01/05 05:04:21;;;;;;;14.23;2.00;;;;;;;9.29;100.00;100918.56;6270962;28;20045;-76
2023/01/05 05:07:24;;;;;;;10.23;3.03;;;;;;;9.29;100.00;100919.41;6271031;28;20056;-76
2023/01/05 05:10:26;;;;;;;7.38;1.40;;;;;;;9.27;100.00;100923.03;6270776;28;20052;-76
2023/01/05 05:13:27;;;;;;;13.63;2.03;;;;;;;9.19;100.00;100922.53;6272857;28;20041;-76
2023/01/05 05:16:28;;;;;;;5.85;1.20;;;;;;;9.18;100.00;100924.28;6275321;28;20057;-76
2023/01/05 05:19:30;;;;;;;7.85;1.13;;;;;;;9.08;100.00;100944.84;6275360;28;20417;-76
2023/01/05 05:22:32;;;;;;;5.40;1.17;;;;;;;9.12;100.00;100925.41;6275164;28;20045;-76
2023/01/05 05:25:34;;;;;;;8.13;1.20;;;;;;;9.15;100.00;100938.38;6275437;28;20063;-77
2023/01/05 05:28:35;;;;;;;4.72;2.28;;;;;;;9.18;100.00;100947.91;6275156;28;20049;-76
2023/01/05 05:31:36;;;;;;;4.00;1.25;;;;;;;9.13;100.00;100937.63;6275265;28;20607;-76
2023/01/05 05:34:38;;;;;;;6.57;1.52;;;;;;;9.07;100.00;100948.34;6274888;28;20414;-76
2023/01/05 05:37:40;;;;;;;10.50;1.63;;;;;;;9.03;100.00;100949.41;6275278;28;20059;-76
2023/01/05 05:40:42;;;;;;;11.45;1.20;;;;;;;9.09;100.00;100959.63;6274787;28;20052;-76
2023/01/05 05:43:43;;;;;;;7.15;1.70;;;;;;;9.12;100.00;100956.84;6274701;28;20045;-77
2023/01/05 05:46:44;;;;;;;4.22;1.20;;;;;;;9.05;100.00;100986.91;6274954;28;20063;-76
2023/01/05 05:49:46;;;;;;;13.10;1.75;;;;;;;9.08;100.00;100973.66;6274583;28;20524;-76
2023/01/05 05:52:48;;;;;;;5.43;1.05;;;;;;;9.08;100.00;100971.06;6275115;28;20056;-76
2023/01/05 05:55:50;;;;;;;8.45;1.15;;;;;;;9.06;100.00;100974.66;6274513;28;20052;-76
2023/01/05 05:58:51;;;;;;;13.48;1.80;;;;;;;9.05;100.00;100979.03;6274691;28;20057;-76
2023/01/05 06:01:53;;;;;;;5.45;1.13;;;;;;;9.11;100.00;100983.16;6274372;28;20049;-76
2023/01/05 06:04:55;;;;;;;10.15;1.42;;;;;;;9.05;100.00;100981.66;6274443;28;20055;-75
2023/01/05 06:07:57;;;;;;;7.90;1.50;;;;;;;9.05;100.00;100991.28;6274439;28;20053;-76
2023/01/05 06:10:59;;;;;;;5.80;0.80;;;;;;;9.08;100.00;100996.38;6274441;28;20060;-76
2023/01/05 06:14:01;;;;;;;8.55;1.27;;;;;;;9.06;100.00;100990.38;6274191;28;20749;-76
2023/01/05 06:17:03;;;;;;;6.72;0.93;;;;;;;9.05;100.00;100988.69;6274274;28;20053;-75
2023/01/05 06:20:05;;;;;;;4.53;1.08;;;;;;;9.07;100.00;101008.66;6274064;28;20053;-76
2023/01/05 06:23:08;;;;;;;3.53;0.77;;;;;;;9.10;100.00;101005.06;6273730;28;20404;-75
2023/01/05 06:26:09;;;;;;;12.73;2.25;;;;;;;9.12;100.00;101004.06;6273832;28;20432;-75
2023/01/05 06:29:11;;;;;;;5.60;1.80;;;;;;;9.08;100.00;101019.97;6273817;28;20060;-76
2023/01/05 06:32:12;;;;;;;5.38;0.95;;;;;;;9.08;100.00;101013.00;6273869;28;20045;-75
2023/01/05 06:35:13;;;;;;;10.18;1.45;;;;;;;9.06;100.00;101024.44;6274195;28;20041;-75
2023/01/05 06:38:16;;;;;;;6.68;1.65;;;;;;;9.01;100.00;101027.28;6273506;28;20459;-75
2023/01/05 06:41:17;;;;;;;6.05;1.20;;;;;;;9.04;100.00;101032.38;6273505;28;20052;-75
2023/01/05 06:44:19;;;;;;;5.95;1.77;;;;;;;9.11;100.00;101060.03;6273567;28;20048;-75
2023/01/05 06:47:20;;;;;;;14.38;2.63;;;;;;;9.06;100.00;101054.13;6273364;28;20045;-76
2023/01/05 06:50:21;;;;;;;10.07;1.95;;;;;;;9.06;100.00;101055.91;6273066;28;20049;-76
2023/01/05 06:53:24;;;;;;;4.60;1.48;;;;;;;8.99;100.00;101046.59;6273471;28;20045;-76
2023/01/05 06:56:25;;;;;;;8.45;1.67;;;;;;;9.03;100.00;101064.75;6273016;28;20068;-76
2023/01/05 06:59:27;;;;;;;12.68;1.67;;;;;;;8.98;100.00;101068.47;6273187;28;20056;-76
2023/01/05 07:02:28;;;;;;;6.00;1.75;;;;;;;8.92;100.00;101082.69;6272842;28;20420;-75
2023/01/05 07:05:29;;;;;;;14.98;2.70;;;;;;;8.91;100.00;101083.63;6273221;28;20045;-76
2023/01/05 07:08:32;;;;;;;10.15;2.22;;;;;;;8.89;100.00;101095.91;6272871;28;20416;-75
2023/01/05 07:11:33;;;;;;;16.55;1.60;;;;;;;8.84;100.00;101103.13;6273262;28;20052;-75
2023/01/05 07:14:35;;;;;;;6.13;1.48;;;;;;;8.90;100.00;101097.63;6272626;28;20060;-76
2023/01/05 07:17:36;;;;;;;10.45;1.40;;;;;;;8.83;100.00;101094.41;6272697;28;20516;-76
2023/01/05 07:20:38;;;;;;;7.00;1.33;;;;;;;8.87;100.00;101118.72;6272350;28;20136;-75
2023/01/05 07:23:40;;;;;;;6.40;1.23;;;;;;;8.93;100.00;101112.38;6272318;28;20057;-76
2023/01/05 07:26:42;;;;;;;7.28;1.50;;;;;;;8.83;100.00;101111.91;6272616;28;20045;-76
2023/01/05 07:29:43;;;;;;;12.27;1.48;;;;;;;8.89;100.00;101120.34;6272305;28;20053;-75
2023/01/05 07:32:44;;;;;;;11.35;1.88;;;;;;;8.85;100.00;101120.53;6272620;28;20295;-75
2023/01/05 07:35:46;;;;;;;7.07;1.67;;;;;;;8.84;100.00;101129.31;6261940;28;20049;-75
2023/01/05 07:38:48;;;;;;;8.30;2.60;;;;;;;8.83;100.00;101133.72;6262295;28;20057;-76
2023/01/05 07:41:50;;;;;;;4.63;0.85;;;;;;;8.76;100.00;101127.00;6263417;28;20056;-76
2023/01/05 07:44:51;;;;;;;13.25;1.83;;;;;;;8.78;100.00;101132.19;6269054;28;20046;-75
2023/01/05 07:47:52;;;;;;;9.55;1.88;;;;;;;8.74;100.00;101138.47;6263726;28;20501;-76
2023/01/05 07:51:01;;;;;;;9.48;1.40;;;;;;;8.70;100.00;101131.66;6271732;28;20057;-76
2023/01/05 07:54:03;;;;;;;14.45;2.28;;;;;;;8.72;100.00;101143.78;6271843;28;20045;-76
2023/01/05 07:57:05;;;;;;;12.90;1.45;;;;;;;8.71;100.00;101146.44;6271716;28;20052;-75
2023/01/05 08:00:08;;;;;;;10.95;1.05;;;;;;;8.73;100.00;101152.50;6265907;28;20041;-76
2023/01/05 08:03:09;;;;;;;10.13;1.55;;;;;;;8.70;100.00;101157.84;6242114;28;20044;-75
2023/01/05 08:06:12;;;;;;;5.43;1.00;;;;;;;8.70;100.00;101155.22;6236428;28;20405;-75
2023/01/05 08:13:58;;;;;;;9.77;1.35;;;;;;;8.69;100.00;101166.63;6254920;28;20046;-76
2023/01/05 08:15:56;;;;;;;12.73;1.33;;;;;;;8.71;100.00;101170.03;6222036;28;20049;-75
2023/01/05 08:18:58;;;;;;;4.85;1.65;;;;;;;8.75;100.00;101171.63;6222335;28;20042;-76
2023/01/05 08:22:00;;;;;;;3.17;1.20;;;;;;;8.75;100.00;101195.19;6222135;28;20137;-77
2023/01/05 08:25:03;;;;;;;3.40;1.30;;;;;;;8.83;100.00;101185.28;6222213;28;20120;-76
2023/01/05 08:28:05;;;;;;;5.90;1.60;;;;;;;8.79;100.00;101195.03;6225682;28;20448;-76
2023/01/05 08:31:08;;;;;;;14.85;1.38;;;;;;;8.82;100.00;101196.69;6251560;28;20430;-76
2023/01/05 08:34:09;;;;;;;5.30;1.40;;;;;;;8.83;100.00;101211.50;6254525;28;20057;-76
2023/01/05 08:37:10;;;;;;;5.20;1.23;;;;;;;8.87;100.00;101197.34;6253434;28;20062;-75
2023/01/05 08:40:13;;;;;;;8.20;1.63;;;;;;;8.85;100.00;101204.41;6246210;28;20053;-76
2023/01/05 08:43:15;;;;;;;5.00;1.15;;;;;;;8.89;100.00;101213.84;6246247;28;20056;-76
2023/01/05 08:46:16;;;;;;;5.13;2.47;;;;;;;8.86;100.00;101214.00;6227994;28;20057;-75
2023/01/05 08:49:17;;;;;;;1.63;0.47;;;;;;;8.87;100.00;101218.31;6226564;28;20078;-76
2023/01/05 08:52:19;;;;;;;4.80;1.17;;;;;;;8.85;100.00;101228.00;6255710;28;20316;-75
2023/01/05 08:55:21;;;;;;;2.70;1.08;;;;;;;8.80;100.00;101237.81;6273114;28;20496;-75
2023/01/05 08:58:23;;;;;;;3.17;1.00;;;;;;;8.78;100.00;101244.88;6275950;28;20056;-75
2023/01/05 09:01:24;;;;;;;2.90;0.93;;;;;;;8.85;100.00;101247.19;6272872;28;20412;-76
2023/01/05 09:04:26;;;;;;;7.68;1.48;;;;;;;8.83;100.00;101251.66;6250992;28;20048;-75
2023/01/05 09:07:28;;;;;;;6.95;1.30;;;;;;;8.83;100.00;101250.78;6251020;28;20053;-75
2023/01/05 09:10:30;;;;;;;10.07;1.77;;;;;;;8.87;100.00;101257.63;6250628;28;20049;-76
2023/01/05 09:13:32;;;;;;;9.30;1.63;;;;;;;8.91;100.00;101261.00;6250873;28;20054;-76
2023/01/05 09:16:34;;;;;;;8.50;1.15;;;;;;;8.90;100.00;101260.13;6250551;28;20053;-75
2023/01/05 09:19:36;;;;;;;6.60;1.15;;;;;;;8.91;100.00;101274.09;6250636;28;20041;-75
2023/01/05 09:22:37;;;;;;;1.58;1.23;;;;;;;8.93;100.00;101290.63;6250434;28;20078;-75
2023/01/05 09:25:40;;;;;;;7.82;1.65;;;;;;;8.89;100.00;101284.63;6250276;28;20052;-76
2023/01/05 09:28:42;;;;;;;7.57;1.90;;;;;;;8.92;100.00;101295.00;6250200;28;20041;-74
2023/01/05 09:31:44;;;;;;;6.93;1.25;;;;;;;8.86;100.00;101288.22;6250466;28;20049;-76
2023/01/05 09:34:45;;;;;;;6.43;1.85;;;;;;;8.75;100.00;101310.50;6250104;28;20061;-76
2023/01/05 09:37:47;;;;;;;3.30;1.10;;;;;;;8.67;100.00;101302.91;6229260;28;20054;-76
2023/01/05 09:40:51;;;;;;;4.85;1.00;;;;;;;8.70;100.00;101315.91;6225388;28;20049;-76
2023/01/05 09:43:57;;;;;;;5.32;1.30;;;;;;;8.72;100.00;101315.84;6225330;28;20441;-76
2023/01/05 09:47:03;;;;;;;5.20;1.40;;;;;;;8.74;100.00;101332.38;6225596;28;20060;-76
2023/01/05 09:50:07;;;;;;;14.05;1.55;;;;;;;8.73;100.00;101330.69;6225399;28;20085;-76
2023/01/05 09:53:12;;;;;;;19.65;1.55;;;;;;;8.77;100.00;101334.91;6225522;28;20050;-77
2023/01/05 09:56:26;;;;;;;0.98;0.80;;;;;;;8.81;100.00;101339.09;6236334;28;20041;-76
2023/01/05 09:59:30;;;;;;;4.35;1.77;;;;;;;8.78;100.00;101345.31;6234956;28;20053;-76
2023/01/05 10:02:35;;;;;;;6.63;1.55;;;;;;;8.82;100.00;101356.53;6242009;28;20559;-76
2023/01/05 10:05:41;;;;;;;4.60;0.85;;;;;;;8.72;100.00;101361.28;6249565;28;20049;-75
2023/01/05 10:08:44;;;;;;;8.90;1.80;;;;;;;8.55;100.00;101367.09;6249690;28;20049;-76
2023/01/05 10:15:17;;;;;;;1.45;0.85;;;;;;;7.72;100.00;101384.66;6249419;28;20050;-75
2023/01/05 10:18:23;;;;;;;0.20;0.20;;;;;;;7.65;100.00;101387.50;6249387;28;20053;-76
2023/01/05 10:21:34;;;;;;;0.20;0.20;;;;;;;7.66;100.00;101384.84;6249484;28;20389;-76
2023/01/05 10:24:47;;;;;;;0.98;0.20;;;;;;;7.68;100.00;101377.81;6249199;28;20061;-76
2023/01/05 10:27:58;;;;;;;1.80;0.17;;;;;;;7.64;100.00;101391.88;6249530;28;20053;-76
2023/01/05 10:31:01;;;;;;;1.00;0.45;;;;;;;7.59;100.00;101396.41;6248884;28;20053;-76
2023/01/05 10:34:11;;;;;;;0.30;0.30;;;;;;;7.58;100.00;101397.28;6248932;28;20049;-76
2023/01/05 10:37:28;;;;;;;2.83;0.43;;;;;;;7.60;100.00;101395.50;6232603;28;20053;-76
2023/01/05 10:40:44;;;;;;;0.75;0.35;;;;;;;7.62;100.00;101398.91;6223951;28;20049;-76
2023/01/05 10:44:07;;;;;;;0.20;0.20;;;;;;;7.59;100.00;101399.03;6234137;28;20133;-77
2023/01/05 10:47:09;;;;;;;0.20;0.20;;;;;;;7.58;100.00;101397.28;6233647;28;20050;-76
2023/01/05 10:50:28;;;;;;;1.27;0.20;;;;;;;7.58;100.00;101402.50;6235206;28;20060;-76
2023/01/05 10:53:35;;;;;;;0.30;0.30;;;;;;;7.58;100.00;101399.91;6236934;28;20048;-76
2023/01/05 10:56:36;;;;;;;1.55;0.88;;;;;;;7.63;100.00;101411.09;6246097;28;20045;-76
2023/01/05 10:59:54;;;;;;;4.05;0.45;;;;;;;7.59;100.00;101417.31;6234652;28;20049;-76
2023/01/05 11:03:03;;;;;;;0.47;0.40;;;;;;;7.62;100.00;101415.44;6234309;28;20057;-76
2023/01/05 11:06:07;;;;;;;1.27;0.30;;;;;;;7.68;100.00;101427.50;6238525;28;20046;-77
2023/01/05 11:09:17;;;;;;;1.27;0.57;;;;;;;7.58;100.00;101433.91;6234159;28;20102;-76
2023/01/05 11:12:21;;;;;;;7.57;0.70;;;;;;;7.55;100.00;101432.25;6235229;28;20046;-76
2023/01/05 11:15:23;;;;;;;0.98;0.30;;;;;;;7.51;100.00;101435.00;6232711;28;20054;-76
2023/01/05 11:18:30;;;;;;;0.15;0.10;;;;;;;7.53;100.00;101454.97;6235508;28;20049;-76
2023/01/05 11:21:43;;;;;;;1.52;0.20;;;;;;;7.46;100.00;101439.50;6247599;28;20057;-76
2023/01/05 11:24:47;;;;;;;0.20;0.20;;;;;;;7.47;100.00;101443.84;6247746;28;20045;-76
2023/01/05 11:28:05;;;;;;;1.02;0.63;;;;;;;7.51;100.00;101435.84;6247551;28;20394;-76
2023/01/05 11:31:08;;;;;;;0.10;0.10;;;;;;;7.57;100.00;101445.28;6247537;28;20057;-76
2023/01/05 11:34:23;;;;;;;0.98;0.30;;;;;;;7.59;100.00;101438.25;6247405;28;20049;-76
2023/01/05 11:37:26;;;;;;;0.22;0.20;;;;;;;7.56;100.00;101443.56;6229546;28;20046;-77
2023/01/05 11:40:30;;;;;;;0.30;0.13;;;;;;;7.59;100.00;101441.72;6222575;28;20073;-76
2023/01/05 11:43:32;;;;;;;0.20;0.20;;;;;;;7.63;100.00;101453.81;6223025;28;20050;-76
2023/01/05 11:46:43;;;;;;;0.13;0.13;;;;;;;7.60;100.00;101453.03;6222577;28;20050;-76
2023/01/05 11:49:44;;;;;;;0.73;0.45;;;;;;;7.69;100.00;101455.38;6222549;28;20050;-76
2023/01/05 11:52:48;;;;;;;0.65;0.40;;;;;;;7.70;100.00;101443.16;6222448;28;20057;-76
2023/01/05 11:55:59;;;;;;;0.40;0.40;;;;;;;7.69;100.00;101442.31;6222276;28;20180;-76
2023/01/05 11:59:01;;;;;;;0.40;0.40;;;;;;;7.72;100.00;101442.22;6222287;28;20057;-76
2023/01/05 12:02:25;;;;;;;4.72;0.25;;;;;;;7.76;100.00;101449.03;6222505;28;20050;-75
2023/01/05 12:05:39;;;;;;;1.75;0.73;;;;;;;7.75;100.00;101459.56;6222326;28;20057;-76
2023/01/05 12:08:51;;;;;;;0.17;0.17;;;;;;;7.79;100.00;101471.66;6222169;28;20046;-76
2023/01/05 12:12:04;;;;;;;0.13;0.13;;;;;;;7.80;100.00;101468.13;6222559;28;20060;-76
2023/01/05 12:15:26;;;;;;;0.25;0.25;;;;;;;7.86;100.00;101455.72;6222058;28;20050;-76
2023/01/05 12:18:53;;;;;;;0.52;0.38;;;;;;;7.95;100.00;101466.78;6229603;28;20059;-76
2023/01/05 12:22:13;;;;;;;1.50;0.40;;;;;;;8.01;100.00;101461.38;6246399;28;20497;-76
2023/01/05 12:25:25;;;;;;;0.20;0.20;;;;;;;8.01;100.00;101474.47;6246764;28;20045;-76
2023/01/05 12:28:53;;;;;;;2.22;0.70;;;;;;;8.02;100.00;101477.03;6246830;28;20076;-76
2023/01/05 12:32:10;;;;;;;4.28;0.52;;;;;;;8.16;100.00;101475.75;6246279;28;20494;-76
2023/01/05 12:35:32;;;;;;;1.58;0.60;;;;;;;8.13;100.00;101487.19;6246623;28;20041;-76
2023/01/05 12:38:41;;;;;;;1.45;0.68;;;;;;;8.16;100.00;101486.22;6221841;28;20057;-76
2023/01/05 12:41:51;;;;;;;2.70;0.97;;;;;;;8.21;100.00;101489.53;6221977;28;20053;-76
2023/01/05 12:45:08;;;;;;;3.17;0.65;;;;;;;8.23;100.00;101490.38;6221839;28;20409;-76
2023/01/05 12:48:15;;;;;;;3.67;0.73;;;;;;;8.27;100.00;101484.13;6221837;28;20512;-76
2023/01/05 12:51:22;;;;;;;5.93;0.75;;;;;;;8.25;100.00;101488.56;6221650;28;20644;-76
2023/01/05 12:54:31;;;;;;;0.50;0.50;;;;;;;8.24;100.00;101494.69;6221780;28;20054;-76
2023/01/05 12:57:36;;;;;;;2.45;0.80;;;;;;;8.32;100.00;101492.69;6221631;28;20046;-76
2023/01/05 13:00:44;;;;;;;1.42;1.13;;;;;;;8.42;100.00;101491.53;6221634;28;20161;-75
2023/01/05 13:03:53;;;;;;;1.10;0.70;;;;;;;8.43;100.00;101489.75;6221387;28;20513;-75
2023/01/05 13:06:58;;;;;;;4.53;1.25;;;;;;;8.44;100.00;101494.09;6221664;28;20085;-75
2023/01/05 13:10:03;;;;;;;0.50;0.50;;;;;;;8.50;100.00;101494.75;6221408;28;20046;-76
2023/01/05 13:13:11;;;;;;;2.97;0.63;;;;;;;8.50;100.00;101497.38;6221558;28;20045;-76
2023/01/05 13:16:17;;;;;;;3.22;0.88;;;;;;;8.53;100.00;101512.13;6221406;28;20505;-76
2023/01/05 13:19:23;;;;;;;0.82;0.68;;;;;;;8.53;100.00;101517.34;6221466;28;20494;-75
2023/01/05 13:22:31;;;;;;;9.27;1.50;;;;;;;8.55;100.00;101521.66;6221235;28;20437;-76
2023/01/05 13:25:39;;;;;;;2.03;0.80;;;;;;;8.60;100.00;101530.22;6221227;28;20058;-76
2023/01/05 13:28:40;;;;;;;2.47;1.20;;;;;;;8.61;100.00;101531.94;6221147;28;20077;-76
2023/01/05 13:32:07;;;;;;;2.70;0.98;;;;;;;8.64;100.00;101525.75;6221190;28;20054;-76
2023/01/05 13:35:29;;;;;;;5.03;0.75;;;;;;;8.58;100.00;101528.53;6236479;28;20044;-75
2023/01/05 13:39:03;;;;;;;3.78;1.00;;;;;;;8.61;100.00;101538.94;6261118;28;20536;-76
2023/01/05 13:42:21;;;;;;;0.60;0.60;;;;;;;8.61;100.00;101547.66;6322206;22;20289;-72
2023/01/05 13:46:02;;;;;;;4.60;1.13;;;;;;;8.61;100.00;101539.78;6279363;28;20048;-72
2023/01/05 13:49:23;;;;;;;5.93;0.90;;;;;;;8.57;100.00;101548.66;6294520;28;20052;-72
2023/01/05 13:52:37;;;;;;;0.68;0.50;;;;;;;8.56;100.00;101541.69;6299346;28;20052;-72
2023/01/05 13:55:46;;;;;;;1.13;0.52;;;;;;;8.56;100.00;101552.19;6299269;28;20049;-72
2023/01/05 13:58:50;;;;;;;;;;;;;;;8.58;100.00;101557.34;6299583;28;20056;-72
2023/01/05 14:01:51;;;;;;;0.38;0.30;;;;;;;8.48;100.00;101561.19;6299088;28;19921;-72
2023/01/05 14:04:53;;;;;;;3.90;0.50;;;;;;;8.46;100.00;101556.00;6298756;28;20048;-71
2023/01/05 14:07:57;;;;;;;0.90;0.60;;;;;;;8.38;100.00;101547.53;6299333;28;20045;-72
2023/01/05 14:11:12;;;;;;;0.50;0.50;;;;;;;8.41;100.00;101551.81;6298730;28;20049;-72
2023/01/05 14:14:26;;;;;;;6.80;1.27;;;;;;;8.42;100.00;101564.84;6298929;28;20504;-72
2023/01/05 14:17:51;;;;;;;3.63;0.70;;;;;;;8.41;100.00;101578.00;6298844;28;20051;-72
2023/01/05 14:20:53;;;;;;;2.67;0.70;;;;;;;8.51;100.00;101571.56;6296289;28;20051;-71
2023/01/05 14:23:57;;;;;;;1.98;0.52;;;;;;;8.40;100.00;101582.38;6298580;28;20076;-71
2023/01/05 14:27:06;;;;;;;0.82;0.50;;;;;;;8.32;100.00;101584.34;6298655;28;20048;-71
2023/01/05 14:30:21;;;;;;;2.22;0.90;;;;;;;8.25;100.00;101594.13;6298850;28;20049;-71
2023/01/05 14:33:22;;;;;;;2.85;0.57;;;;;;;8.22;100.00;101599.50;6298455;28;20127;-71
2023/01/05 14:36:28;;;;;;;3.20;0.55;;;;;;;8.20;100.00;101601.28;6298424;28;20048;-72
2023/01/05 14:39:36;;;;;;;0.95;0.28;;;;;;;8.24;100.00;101599.44;6298534;28;20059;-71
2023/01/05 14:42:39;;;;;;;2.60;0.85;;;;;;;8.19;100.00;101607.44;6298248;28;20075;-70
2023/01/05 14:45:41;;;;;;;3.17;1.02;;;;;;;8.19;100.00;101617.06;6297721;28;20055;-71
2023/01/05 14:48:45;;;;;;;1.08;0.98;;;;;;;8.24;100.00;101620.38;6298158;28;20416;-71
2023/01/05 14:51:53;;;;;;;0.65;0.63;;;;;;;8.23;100.00;101618.69;6297925;28;20044;-71
2023/01/05 14:55:20;;;;;;;9.05;0.60;;;;;;;8.20;100.00;101621.38;6297878;28;20048;-71